createdAt,value
2023-01-19T00:00:11.833Z,84.85
2023-01-19T00:01:24.111Z,85.06
2023-01-19T00:02:25.777Z,84.93
2023-01-19T00:03:27.402Z,85.17
2023-01-19T00:04:28.955Z,85.27
2023-01-19T00:05:30.873Z,85.13
2023-01-19T00:06:32.839Z,85.06
2023-01-19T00:07:34.990Z,85.35
2023-01-19T00:08:37.122Z,85.34
2023-01-19T00:09:46.145Z,85.50
2023-01-19T00:10:51.168Z,85.32
2023-01-19T00:11:52.714Z,85.26
2023-01-19T00:12:54.245Z,85.16
2023-01-19T00:13:55.892Z,85.00
2023-01-19T00:14:58.787Z,85.10
2023-01-19T00:16:00.352Z,85.17
2023-01-19T00:17:01.904Z,85.24
2023-01-19T00:18:04.293Z,85.46
2023-01-19T00:19:05.774Z,85.49
2023-01-19T00:20:08.902Z,85.48
2023-01-19T00:21:10.890Z,85.61
2023-01-19T00:22:12.424Z,85.82
2023-01-19T00:23:15.921Z,85.60
2023-01-19T00:24:19.193Z,85.69
2023-01-19T00:25:20.662Z,85.79
2023-01-19T00:26:22.369Z,85.85
2023-01-19T00:27:24.815Z,85.87
2023-01-19T00:28:26.375Z,85.76
2023-01-19T00:29:30.735Z,85.81
2023-01-19T00:30:32.203Z,85.94
2023-01-19T00:31:36.192Z,86.03
2023-01-19T00:32:37.803Z,85.84
2023-01-19T00:33:39.269Z,85.81
2023-01-19T00:34:49.205Z,85.72
2023-01-19T00:35:52.839Z,85.62
2023-01-19T00:36:54.399Z,85.58
2023-01-19T00:37:57.039Z,85.64
2023-01-19T00:38:58.915Z,85.53
2023-01-19T00:40:00.419Z,85.34
2023-01-19T00:41:01.930Z,85.38
2023-01-19T00:42:22.789Z,85.05
2023-01-19T00:43:24.318Z,85.14
2023-01-19T00:44:25.788Z,85.06
2023-01-19T00:45:27.410Z,85.01
2023-01-19T00:46:28.925Z,84.89
2023-01-19T00:47:32.035Z,84.67
2023-01-19T00:48:33.516Z,84.65
2023-01-19T00:49:34.961Z,84.50
2023-01-19T00:50:36.456Z,84.46
2023-01-19T00:51:38.164Z,84.26
2023-01-19T00:52:44.393Z,84.22
2023-01-19T00:53:45.913Z,84.09
2023-01-19T00:54:47.455Z,84.09
2023-01-19T00:55:48.919Z,83.98
2023-01-19T00:56:50.425Z,83.81
2023-01-19T00:57:51.935Z,83.85
2023-01-19T00:58:53.423Z,83.43
2023-01-19T00:59:54.992Z,83.37
2023-01-19T01:01:03.373Z,83.47
2023-01-19T01:02:05.483Z,83.47
2023-01-19T01:03:07.242Z,83.38
2023-01-19T01:04:08.879Z,83.37
2023-01-19T01:05:11.764Z,83.48
2023-01-19T01:06:13.604Z,83.35
2023-01-19T01:07:15.089Z,83.20
2023-01-19T01:08:16.552Z,83.37
2023-01-19T01:09:18.048Z,83.37
2023-01-19T01:10:25.767Z,83.38
2023-01-19T01:11:27.268Z,83.38
2023-01-19T01:12:29.356Z,83.48
2023-01-19T01:13:31.461Z,83.46
2023-01-19T01:14:33.471Z,83.10
2023-01-19T01:15:34.970Z,83.15
2023-01-19T01:16:36.553Z,83.27
2023-01-19T01:17:47.064Z,83.27
2023-01-19T01:18:48.539Z,83.23
2023-01-19T01:19:50.409Z,83.07
2023-01-19T01:20:52.749Z,83.11
2023-01-19T01:21:55.685Z,82.95
2023-01-19T01:22:57.786Z,82.59
2023-01-19T01:23:59.431Z,82.68
2023-01-19T01:25:00.921Z,82.68
2023-01-19T01:26:02.401Z,82.92
2023-01-19T01:27:03.883Z,82.67
2023-01-19T01:28:08.630Z,82.92
2023-01-19T01:29:10.145Z,83.22
2023-01-19T01:30:14.225Z,83.34
2023-01-19T01:31:15.777Z,83.63
2023-01-19T01:32:17.401Z,83.70
2023-01-19T01:33:41.302Z,84.01
2023-01-19T01:34:41.296Z,84.51
2023-01-19T01:35:42.778Z,84.50
2023-01-19T01:36:44.289Z,84.63
2023-01-19T01:37:45.906Z,84.81
2023-01-19T01:38:47.364Z,84.99
2023-01-19T01:39:48.821Z,84.93
2023-01-19T01:40:50.688Z,84.70
2023-01-19T01:41:52.194Z,84.74
2023-01-19T01:42:57.902Z,84.75
2023-01-19T01:44:01.687Z,84.92
2023-01-19T01:45:30.675Z,84.73
2023-01-19T01:46:33.091Z,84.77
2023-01-19T01:47:44.225Z,84.61
2023-01-19T01:48:55.311Z,84.54
2023-01-19T01:50:10.947Z,84.43
2023-01-19T01:51:24.472Z,84.35
2023-01-19T01:52:29.466Z,84.29
2023-01-19T01:53:34.526Z,84.26
2023-01-19T01:54:36.477Z,84.04
2023-01-19T01:55:45.752Z,83.95
2023-01-19T01:56:51.775Z,83.96
2023-01-19T01:57:58.223Z,83.43
2023-01-19T01:59:05.961Z,83.42
2023-01-19T02:00:08.570Z,83.40
2023-01-19T02:01:30.081Z,83.21
2023-01-19T02:02:51.058Z,83.12
2023-01-19T02:03:54.381Z,82.94
2023-01-19T02:05:06.350Z,82.79
2023-01-19T02:06:09.870Z,82.69
2023-01-19T02:07:39.164Z,82.01
2023-01-19T02:09:21.708Z,82.07
2023-01-19T23:19:17.039Z,90.33
2023-01-19T23:20:19.649Z,90.43
2023-01-19T23:21:23.670Z,90.49
2023-01-19T23:22:25.493Z,90.31
2023-01-19T23:23:26.956Z,90.38
2023-01-19T23:24:28.393Z,90.23
2023-01-19T23:25:31.755Z,90.06
2023-01-19T23:26:38.256Z,89.93
2023-01-19T23:27:39.939Z,89.98
2023-01-19T23:28:42.230Z,89.81
2023-01-19T23:29:43.875Z,90.08
2023-01-19T23:30:45.560Z,89.77
2023-01-19T23:31:49.320Z,89.66
2023-01-19T23:32:51.055Z,89.63
2023-01-19T23:33:58.407Z,89.56
2023-01-19T23:34:59.789Z,89.46
2023-01-19T23:36:01.232Z,89.17
2023-01-19T23:37:02.876Z,89.38
2023-01-19T23:38:04.403Z,89.10
2023-01-19T23:39:18.675Z,88.33
2023-01-19T23:40:20.197Z,88.58
2023-01-19T23:41:22.828Z,88.13
2023-01-19T23:42:24.546Z,87.84
2023-01-19T23:43:26.075Z,87.78
2023-01-19T23:44:27.553Z,87.37
2023-01-19T23:45:29.047Z,87.56
2023-01-19T23:46:31.293Z,87.47
2023-01-19T23:47:36.511Z,87.50
2023-01-19T23:48:38.512Z,87.43
2023-01-19T23:49:40.145Z,87.23
2023-01-19T23:50:41.719Z,87.20
2023-01-19T23:51:43.216Z,87.46
2023-01-19T23:52:44.682Z,87.74
2023-01-19T23:53:47.156Z,87.19
2023-01-19T23:54:48.795Z,87.06
2023-01-19T23:55:50.320Z,87.46
2023-01-19T23:56:51.773Z,87.39
2023-01-19T23:57:53.244Z,87.58
2023-01-19T23:58:59.444Z,87.68
